createdAt,value
2018-11-07T00:04:18.535Z,96476.47
2018-11-07T00:09:12.924Z,96473.86
2018-11-07T00:14:07.490Z,96481.07
2018-11-07T00:19:01.894Z,96480.88
2018-11-07T00:23:56.518Z,96482.72
2018-11-07T00:28:50.981Z,96475.15
2018-11-07T00:33:45.587Z,96472.02
2018-11-07T00:38:40.120Z,96482.38
2018-11-07T00:43:34.620Z,96462.62
2018-11-07T00:48:29.025Z,96469.58
2018-11-07T00:53:23.512Z,96474.12
2018-11-07T00:58:17.939Z,96481.21
2018-11-07T01:03:12.352Z,96484.41
2018-11-07T01:08:06.816Z,96477.67
2018-11-07T01:13:01.333Z,96484.59
2018-11-07T01:17:55.768Z,96480.20
2018-11-07T01:22:50.204Z,96478.43
2018-11-07T01:27:44.659Z,96464.73
2018-11-07T01:32:39.131Z,96465.56
2018-11-07T01:37:33.584Z,96467.99
2018-11-07T01:42:28.019Z,96454.36
2018-11-07T01:47:22.494Z,96444.98
2018-11-07T01:52:16.947Z,96423.39
2018-11-07T01:57:11.358Z,96419.92
2018-11-07T02:02:05.910Z,96414.62
2018-11-07T02:07:00.318Z,96406.34
2018-11-07T02:11:54.738Z,96393.00
2018-11-07T02:16:49.186Z,96390.32
2018-11-07T02:21:43.755Z,96392.79
2018-11-07T02:26:38.175Z,96398.33
2018-11-07T02:31:32.576Z,96395.80
2018-11-07T02:36:27.100Z,96413.41
2018-11-07T02:41:21.617Z,96398.55
2018-11-07T02:46:16.105Z,96407.06
2018-11-07T02:51:10.523Z,96416.70
2018-11-07T02:56:05.093Z,96409.12
2018-11-07T03:00:59.514Z,96409.50
2018-11-07T03:05:53.951Z,96417.45
2018-11-07T03:10:48.455Z,96416.80
2018-11-07T03:15:42.845Z,96412.31
2018-11-07T03:20:37.308Z,96417.52
2018-11-07T03:25:31.739Z,96395.97
2018-11-07T03:30:26.164Z,96397.31
2018-11-07T03:35:26.669Z,96386.38
2018-11-07T03:40:21.091Z,96378.49
2018-11-07T03:45:15.546Z,96383.70
2018-11-07T03:50:10.016Z,96389.59
2018-11-07T03:55:04.436Z,96403.71
2018-11-07T03:59:58.849Z,96403.01
2018-11-07T04:04:53.292Z,96392.93
2018-11-07T04:09:47.747Z,96395.98
2018-11-07T04:14:42.186Z,96396.62
2018-11-07T04:19:36.644Z,96393.55
2018-11-07T04:24:31.094Z,96383.75
2018-11-07T04:29:25.524Z,96394.01
2018-11-07T04:34:20.055Z,96392.19
2018-11-07T04:39:14.854Z,96387.09
2018-11-07T04:44:09.703Z,96381.27
2018-11-07T04:49:04.204Z,96383.04
2018-11-07T04:53:58.609Z,96376.20
2018-11-07T04:58:53.096Z,96384.23
2018-11-07T05:03:47.539Z,96370.16
2018-11-07T05:08:41.974Z,96376.27
2018-11-07T05:13:36.492Z,96377.12
2018-11-07T05:18:30.904Z,96358.66
2018-11-07T05:23:25.292Z,96364.36
2018-11-07T05:28:19.720Z,96372.39
2018-11-07T05:33:14.184Z,96362.34
2018-11-07T05:38:08.682Z,96367.34
2018-11-07T05:43:03.101Z,96371.18
2018-11-07T05:47:57.550Z,96374.08
2018-11-07T05:52:51.933Z,96368.44
2018-11-07T05:57:46.343Z,96369.55
2018-11-07T06:02:41.158Z,96376.85
2018-11-07T06:07:35.924Z,96384.12
2018-11-07T06:12:30.323Z,96385.57
2018-11-07T06:17:24.793Z,96386.03
2018-11-07T06:22:19.216Z,96380.37
2018-11-07T06:27:13.741Z,96407.12
2018-11-07T06:32:08.215Z,96389.56
2018-11-07T06:37:02.694Z,96396.23
2018-11-07T06:41:57.102Z,96397.07
2018-11-07T06:46:51.576Z,96398.16
2018-11-07T06:51:46.015Z,96407.19
2018-11-07T06:56:40.515Z,96397.65
2018-11-07T07:01:35.190Z,96386.22
2018-11-07T07:06:29.682Z,96394.56
2018-11-07T07:11:24.423Z,96387.63
2018-11-07T07:16:24.484Z,96407.50
2018-11-07T07:21:31.096Z,96390.47
2018-11-07T07:26:26.035Z,96388.97
2018-11-07T07:31:20.504Z,96388.96
2018-11-07T07:36:15.201Z,96396.81
2018-11-07T07:41:09.791Z,96374.77
2018-11-07T07:46:04.264Z,96376.44
2018-11-07T07:50:58.801Z,96385.83
2018-11-07T07:55:53.381Z,96390.52
2018-11-07T08:00:47.879Z,96395.17
2018-11-07T08:05:42.316Z,96399.38
2018-11-07T08:10:37.146Z,96411.34
2018-11-07T08:15:32.718Z,96405.91
2018-11-07T08:20:27.415Z,96404.48
2018-11-07T08:25:21.939Z,96397.91
2018-11-07T08:30:18.805Z,96402.34
2018-11-07T08:35:15.352Z,96397.94
2018-11-07T08:40:19.617Z,96407.91
2018-11-07T08:45:14.744Z,96410.00
2018-11-07T08:50:12.455Z,96408.39
2018-11-07T08:55:32.736Z,96409.89
2018-11-07T09:00:44.766Z,96409.50
2018-11-07T09:05:59.601Z,96409.27
2018-11-07T09:11:19.483Z,96405.81
2018-11-07T09:16:14.811Z,96412.33
2018-11-07T09:21:09.897Z,96415.89
2018-11-07T09:26:05.929Z,96413.95
2018-11-07T09:31:01.970Z,96421.95
2018-11-07T09:35:56.431Z,96422.57
2018-11-07T09:40:52.203Z,96423.50
2018-11-07T09:45:47.406Z,96425.86
2018-11-07T09:50:41.948Z,96433.41
2018-11-07T09:55:47.513Z,96430.65
2018-11-07T10:00:42.290Z,96427.25
2018-11-07T10:05:37.086Z,96419.33
2018-11-07T10:10:31.605Z,96414.67
2018-11-07T10:15:26.885Z,96408.39
2018-11-07T10:20:29.360Z,96403.00
2018-11-07T10:25:24.388Z,96408.36
2018-11-07T10:30:22.272Z,96409.97
2018-11-07T10:35:17.821Z,96402.58
2018-11-07T10:40:15.397Z,96398.33
2018-11-07T10:45:11.612Z,96393.82
2018-11-07T10:50:08.428Z,96404.17
2018-11-07T10:55:03.742Z,96406.99
2018-11-07T10:59:58.659Z,96396.46
2018-11-07T11:04:53.292Z,96402.56
2018-11-07T11:09:47.912Z,96395.64
2018-11-07T11:14:44.028Z,96406.08
2018-11-07T11:19:38.674Z,96408.20
2018-11-07T11:24:34.761Z,96399.95
2018-11-07T11:29:31.338Z,96397.22
2018-11-07T11:34:25.901Z,96397.06
2018-11-07T11:39:23.563Z,96387.40
2018-11-07T11:44:27.230Z,96390.73
2018-11-07T11:49:28.874Z,96388.50
2018-11-07T11:54:33.703Z,96391.14
2018-11-07T11:59:32.781Z,96394.32
2018-11-07T12:04:27.371Z,96391.80
2018-11-07T12:09:21.885Z,96390.68
2018-11-07T12:14:16.442Z,96390.66
2018-11-07T12:19:12.503Z,96384.55
2018-11-07T12:24:11.973Z,96381.98
2018-11-07T12:29:07.015Z,96390.97
2018-11-07T12:34:07.555Z,96398.97
2018-11-07T12:39:02.458Z,96389.68
2018-11-07T12:43:57.261Z,96395.91
2018-11-07T12:48:52.626Z,96389.00
2018-11-07T12:53:47.257Z,96389.58
2018-11-07T12:58:41.760Z,96391.13
2018-11-07T13:03:36.300Z,96386.44
2018-11-07T13:08:31.747Z,96389.13
2018-11-07T13:13:26.285Z,96398.66
2018-11-07T13:18:20.844Z,96393.66
2018-11-07T13:23:15.421Z,96396.52
2018-11-07T13:28:10.167Z,96403.47
2018-11-07T13:33:06.889Z,96415.36
2018-11-07T13:38:01.713Z,96408.26
2018-11-07T13:42:55.955Z,96417.45
2018-11-07T13:47:53.999Z,96419.06
2018-11-07T13:52:49.853Z,96420.61
2018-11-07T13:57:45.923Z,96426.98
2018-11-07T14:02:44.466Z,96434.39
2018-11-07T14:07:42.748Z,96444.41
2018-11-07T14:12:38.456Z,96447.83
2018-11-07T14:17:35.825Z,96454.70
2018-11-07T14:22:30.463Z,96459.98
2018-11-07T14:27:25.034Z,96463.21
2018-11-07T14:32:21.338Z,96469.51
2018-11-07T14:37:15.925Z,96472.97
2018-11-07T14:42:10.808Z,96483.48
2018-11-07T14:47:05.713Z,96486.87
2018-11-07T14:52:00.157Z,96494.65
2018-11-07T14:56:54.748Z,96494.55
2018-11-07T15:01:49.714Z,96501.75
2018-11-07T15:06:46.444Z,96504.17
2018-11-07T15:11:41.075Z,96509.05
2018-11-07T15:16:35.649Z,96515.22
2018-11-07T15:21:30.288Z,96519.84
2018-11-07T15:26:28.403Z,96529.93
2018-11-07T15:31:26.221Z,96535.83
2018-11-07T15:36:25.505Z,96546.44
2018-11-07T15:41:20.120Z,96556.06
2018-11-07T15:46:14.631Z,96560.58
2018-11-07T15:51:11.841Z,96561.07
2018-11-07T15:56:07.112Z,96576.65
2018-11-07T16:01:01.719Z,96583.33
2018-11-07T16:05:56.869Z,96584.15
2018-11-07T16:10:51.293Z,96587.81
2018-11-07T16:15:45.952Z,96602.84
2018-11-07T16:20:40.422Z,96611.29
2018-11-07T16:25:35.045Z,96619.36
2018-11-07T16:30:29.736Z,96618.86
2018-11-07T16:35:24.513Z,96614.76
2018-11-07T16:40:19.518Z,96625.36
2018-11-07T16:45:17.916Z,96632.25
2018-11-07T16:50:13.642Z,96642.66
2018-11-07T16:55:18.453Z,96651.48
2018-11-07T17:00:16.873Z,96655.80
2018-11-07T17:05:12.328Z,96660.84
2018-11-07T17:10:08.385Z,96677.90
2018-11-07T17:15:02.857Z,96689.30
2018-11-07T17:19:57.298Z,96695.58
2018-11-07T17:24:51.707Z,96698.21
2018-11-07T17:29:46.207Z,96702.53
2018-11-07T17:34:40.662Z,96724.95
2018-11-07T17:39:35.077Z,96732.48
2018-11-07T17:44:29.525Z,96737.03
2018-11-07T17:49:24.117Z,96742.12
2018-11-07T17:54:18.547Z,96751.23
2018-11-07T17:59:12.956Z,96752.99
2018-11-07T18:04:07.548Z,96753.43
2018-11-07T18:09:01.988Z,96764.04
2018-11-07T18:13:56.422Z,96763.53
2018-11-07T18:18:50.888Z,96774.00
2018-11-07T18:23:45.304Z,96775.82
2018-11-07T18:28:39.744Z,96781.86
2018-11-07T18:33:34.229Z,96783.93
2018-11-07T18:38:28.662Z,96788.49
2018-11-07T18:43:23.135Z,96800.00
2018-11-07T18:48:17.544Z,96801.56
2018-11-07T18:53:12.016Z,96814.20
2018-11-07T18:58:07.077Z,96812.33
2018-11-07T19:03:01.528Z,96821.51
2018-11-07T19:07:55.952Z,96823.18
2018-11-07T19:12:51.052Z,96834.42
2018-11-07T19:17:46.503Z,96829.31
2018-11-07T19:22:40.957Z,96833.53
2018-11-07T19:27:35.600Z,96835.73
2018-11-07T19:32:30.029Z,96842.35
2018-11-07T19:37:24.491Z,96837.77
2018-11-07T19:42:19.000Z,96831.93
2018-11-07T19:47:13.461Z,96851.50
2018-11-07T19:52:07.924Z,96864.12
2018-11-07T19:57:02.360Z,96874.45
2018-11-07T20:01:56.801Z,96887.72
2018-11-07T20:06:51.225Z,96898.44
2018-11-07T20:11:45.700Z,96908.70
2018-11-07T20:16:40.201Z,96913.78
2018-11-07T20:21:34.591Z,96905.56
2018-11-07T20:26:29.021Z,96903.59
2018-11-07T20:31:23.456Z,96906.78
2018-11-07T20:36:18.007Z,96912.84
2018-11-07T20:41:12.371Z,96919.17
2018-11-07T20:46:07.072Z,96926.81
2018-11-07T20:51:01.513Z,96935.20
2018-11-07T20:55:55.994Z,96931.40
2018-11-07T21:00:50.458Z,96937.47
2018-11-07T21:05:44.966Z,96939.42
2018-11-07T21:10:39.404Z,96950.80
2018-11-07T21:15:33.833Z,96957.65
2018-11-07T21:20:28.324Z,96954.02
2018-11-07T21:25:22.810Z,96959.40
2018-11-07T21:30:17.333Z,96958.51
2018-11-07T21:35:11.874Z,96966.38
2018-11-07T21:40:09.518Z,96963.75
2018-11-07T21:45:04.005Z,96967.69
2018-11-07T21:49:58.456Z,96975.98
2018-11-07T21:54:52.984Z,96981.23
2018-11-07T21:59:47.308Z,96982.35
2018-11-07T22:04:41.712Z,96984.67
2018-11-07T22:09:36.134Z,96982.17
2018-11-07T22:14:30.557Z,96989.48
2018-11-07T22:19:25.115Z,96978.77
2018-11-07T22:24:19.626Z,96984.43
2018-11-07T22:29:14.041Z,96992.22
2018-11-07T22:34:08.477Z,97000.53
2018-11-07T22:39:02.948Z,97005.55
2018-11-07T22:43:57.360Z,97009.71
2018-11-07T22:48:51.764Z,97007.58
2018-11-07T22:53:46.181Z,97010.20
2018-11-07T22:58:40.609Z,97007.28
2018-11-07T23:03:35.113Z,97011.44
2018-11-07T23:08:29.497Z,97022.30
2018-11-07T23:13:23.953Z,97029.75
2018-11-07T23:18:19.957Z,97035.56
2018-11-07T23:23:14.516Z,97033.38
2018-11-07T23:28:08.954Z,97042.27
2018-11-07T23:33:03.360Z,97041.52
2018-11-07T23:37:57.828Z,97049.83
2018-11-07T23:42:52.250Z,97037.35
2018-11-07T23:47:46.677Z,97031.03
2018-11-07T23:52:47.435Z,97020.28
2018-11-07T23:57:41.839Z,97036.53
